Time;durP1;ratioP1;P1;durP2;ratioP2;P2;SDS_P1;SDS_P2;PMS_P1;PMS_P2;Temp;Humidity;BMP_temperature;BMP_pressure;BME280_temperature;BME280_humidity;BME280_pressure;Samples;Min_cycle;Max_cycle;Signal;HPM_P1;HPM_P2
2022/08/16 00:00:38;;;;;;;8.18;5.18;;;;;;;16.10;100.00;90648.84;5011058;28;20029;-76
2022/08/16 00:03:05;;;;;;;8.32;5.57;;;;;;;16.11;100.00;90661.13;5011332;28;20073;-76
2022/08/16 00:05:30;;;;;;;8.20;4.28;;;;;;;16.16;100.00;90652.81;5011183;28;20030;-75
2022/08/16 00:07:57;;;;;;;9.15;5.72;;;;;;;16.19;100.00;90646.72;5010932;28;20030;-75
2022/08/16 00:10:24;;;;;;;7.35;5.00;;;;;;;16.24;100.00;90645.69;5010975;28;20056;-75
2022/08/16 00:12:50;;;;;;;8.38;5.20;;;;;;;16.24;100.00;90649.13;5011125;28;20088;-75
2022/08/16 00:15:41;;;;;;;8.38;5.70;;;;;;;16.26;100.00;90660.34;5012789;28;20041;-75
2022/08/16 00:18:09;;;;;;;9.27;5.78;;;;;;;16.16;100.00;90650.13;5006694;28;20121;-76
2022/08/16 00:20:36;;;;;;;8.70;5.57;;;;;;;16.08;100.00;90649.16;5014865;28;20041;-75
2022/08/16 00:23:02;;;;;;;7.63;5.05;;;;;;;15.87;100.00;90638.72;5014614;28;20041;-75
2022/08/16 00:25:28;;;;;;;7.82;4.97;;;;;;;15.81;100.00;90639.34;5014525;28;20034;-75
2022/08/16 00:27:54;;;;;;;8.88;5.72;;;;;;;15.78;100.00;90651.53;5014471;28;20046;-75
2022/08/16 00:30:21;;;;;;;8.55;5.45;;;;;;;15.66;100.00;90643.59;5014446;28;20026;-76
2022/08/16 00:32:51;;;;;;;8.75;5.80;;;;;;;15.66;100.00;90658.91;5014439;28;20393;-76
2022/08/16 00:35:24;;;;;;;9.60;6.22;;;;;;;15.61;100.00;90659.91;5014360;28;20164;-76
2022/08/16 00:37:49;;;;;;;8.70;5.68;;;;;;;15.65;100.00;90657.34;5014347;28;20041;-75
2022/08/16 00:40:23;;;;;;;7.78;4.90;;;;;;;15.60;100.00;90649.53;5014233;28;20104;-76
2022/08/16 00:42:48;;;;;;;11.02;6.18;;;;;;;15.54;100.00;90657.03;5014293;28;20431;-76
2022/08/16 00:45:56;;;;;;;10.05;5.88;;;;;;;15.55;100.00;90655.91;5014132;28;20491;-76
2022/08/16 00:48:21;;;;;;;10.43;5.57;;;;;;;15.50;100.00;90645.44;4994565;28;20042;-76
2022/08/16 00:50:47;;;;;;;6.28;4.45;;;;;;;15.57;100.00;90661.69;5014089;28;20138;-76
2022/08/16 00:53:15;;;;;;;8.57;6.18;;;;;;;15.58;100.00;90669.38;5014085;28;20041;-77
2022/08/16 00:55:46;;;;;;;7.47;4.97;;;;;;;15.53;100.00;90676.91;5013958;28;20075;-76
2022/08/16 00:58:12;;;;;;;9.18;5.93;;;;;;;15.44;100.00;90671.72;5012613;28;20037;-74
2022/08/16 01:00:39;;;;;;;8.38;5.20;;;;;;;15.49;100.00;90676.06;5013876;28;20033;-75
2022/08/16 01:03:12;;;;;;;9.55;5.38;;;;;;;15.48;100.00;90674.50;5013896;28;20044;-74
2022/08/16 01:05:37;;;;;;;7.20;5.45;;;;;;;15.40;100.00;90678.09;5013826;28;20026;-74
2022/08/16 01:08:05;;;;;;;8.27;5.60;;;;;;;15.37;100.00;90668.06;5013644;28;20737;-75
2022/08/16 01:10:32;;;;;;;6.55;4.25;;;;;;;15.38;100.00;90685.72;5013511;28;20050;-74
2022/08/16 01:13:02;;;;;;;7.78;5.03;;;;;;;15.40;100.00;90670.84;5013692;28;20030;-75
2022/08/16 01:15:27;;;;;;;10.13;5.43;;;;;;;15.43;100.00;90667.47;5013861;28;20040;-75
2022/08/16 01:17:54;;;;;;;6.88;4.90;;;;;;;15.50;100.00;90672.25;5013508;28;20546;-74
2022/08/16 01:20:23;;;;;;;7.63;5.03;;;;;;;15.57;100.00;90677.78;5013547;28;20554;-74
2022/08/16 01:22:51;;;;;;;8.00;5.18;;;;;;;15.55;100.00;90670.09;5012241;28;20459;-74
2022/08/16 01:25:26;;;;;;;8.82;5.03;;;;;;;15.56;100.00;90665.50;5012578;28;20030;-75
2022/08/16 01:27:54;;;;;;;6.32;4.32;;;;;;;15.65;100.00;90662.69;5013346;28;20033;-74
2022/08/16 01:30:24;;;;;;;7.05;4.55;;;;;;;15.66;100.00;90665.03;5013239;28;20029;-74
2022/08/16 01:32:52;;;;;;;5.15;4.03;;;;;;;15.62;100.00;90661.50;5013349;28;20022;-75
2022/08/16 01:35:21;;;;;;;6.85;4.68;;;;;;;15.69;100.00;90668.91;5013266;28;20502;-75
2022/08/16 01:37:53;;;;;;;4.72;3.80;;;;;;;15.71;100.00;90670.13;5013056;28;20034;-75
2022/08/16 01:40:22;;;;;;;5.50;4.25;;;;;;;15.75;100.00;90673.66;5013097;28;20104;-73
2022/08/16 01:42:48;;;;;;;5.43;3.65;;;;;;;15.74;100.00;90680.16;5013147;28;20025;-74
2022/08/16 01:45:15;;;;;;;9.13;5.28;;;;;;;15.68;100.00;90673.50;5013145;28;20041;-75
2022/08/16 01:47:43;;;;;;;6.03;4.45;;;;;;;15.63;100.00;90676.47;5013030;28;20026;-75
2022/08/16 01:50:09;;;;;;;7.43;5.10;;;;;;;15.49;100.00;90681.41;5012951;28;20030;-74
2022/08/16 01:52:34;;;;;;;5.80;4.20;;;;;;;15.37;100.00;90679.56;5012850;28;20030;-74
2022/08/16 01:55:01;;;;;;;7.10;4.30;;;;;;;15.40;100.00;90686.16;5012901;28;20029;-73
2022/08/16 01:57:28;;;;;;;6.28;3.97;;;;;;;15.42;100.00;90684.69;5012741;28;20030;-73
2022/08/16 01:59:54;;;;;;;5.65;4.57;;;;;;;15.28;100.00;90677.03;5012822;28;20030;-74
2022/08/16 02:02:19;;;;;;;6.90;4.65;;;;;;;15.24;100.00;90684.22;5012781;28;20029;-75
2022/08/16 02:04:45;;;;;;;7.82;4.57;;;;;;;15.23;100.00;90685.34;5012712;28;20034;-77
2022/08/16 02:07:12;;;;;;;8.02;4.75;;;;;;;15.28;100.00;90671.69;5012816;28;20025;-77
2022/08/16 02:09:39;;;;;;;5.97;4.53;;;;;;;15.30;100.00;90687.41;5012408;28;20542;-77
2022/08/16 02:12:07;;;;;;;7.63;4.43;;;;;;;15.36;100.00;90674.56;5012783;28;20042;-77
2022/08/16 02:14:34;;;;;;;6.85;4.22;;;;;;;15.48;100.00;90682.53;5012552;28;20025;-77
2022/08/16 02:17:04;;;;;;;5.95;4.35;;;;;;;15.56;100.00;90673.53;5012442;28;20044;-77
2022/08/16 02:19:32;;;;;;;8.32;5.10;;;;;;;15.66;100.00;90670.41;5012357;28;20022;-77
2022/08/16 02:21:59;;;;;;;7.45;4.25;;;;;;;15.76;100.00;90677.13;5012407;28;20038;-77
2022/08/16 02:24:25;;;;;;;8.13;5.05;;;;;;;15.75;100.00;90673.66;5012270;28;20483;-77
2022/08/16 02:26:51;;;;;;;8.07;5.15;;;;;;;15.82;100.00;90662.34;5012259;28;20045;-76
2022/08/16 02:29:17;;;;;;;7.25;5.47;;;;;;;15.86;100.00;90666.69;5012242;28;20025;-76
2022/08/16 02:31:44;;;;;;;6.97;4.38;;;;;;;15.94;100.00;90664.16;5012300;28;20036;-76
2022/08/16 02:34:11;;;;;;;6.75;4.68;;;;;;;16.05;100.00;90665.19;5012235;28;20029;-76
2022/08/16 02:36:36;;;;;;;5.88;4.68;;;;;;;16.04;100.00;90664.41;5011910;28;20488;-76
2022/08/16 02:39:03;;;;;;;5.88;4.45;;;;;;;16.09;100.00;90674.88;5012345;28;20056;-76
2022/08/16 02:41:29;;;;;;;6.72;4.43;;;;;;;16.11;100.00;90677.22;5012080;28;20073;-76
2022/08/16 02:43:55;;;;;;;5.35;3.92;;;;;;;16.23;100.00;90673.66;5012028;28;20065;-76
2022/08/16 02:46:20;;;;;;;6.88;4.35;;;;;;;16.23;100.00;90670.97;5011887;28;20112;-76
2022/08/16 02:48:46;;;;;;;5.53;4.32;;;;;;;16.21;100.00;90668.63;5011897;28;20029;-76
2022/08/16 02:51:11;;;;;;;6.78;4.30;;;;;;;16.28;100.00;90674.19;5011879;28;20084;-76
2022/08/16 02:53:42;;;;;;;6.20;4.15;;;;;;;16.35;100.00;90685.06;5011895;28;20444;-76
2022/08/16 02:56:11;;;;;;;7.07;4.32;;;;;;;16.39;100.00;90685.13;5011738;28;20065;-74
2022/08/16 02:58:37;;;;;;;11.73;7.20;;;;;;;16.43;100.00;90696.75;5011794;28;20465;-74
2022/08/16 03:01:03;;;;;;;6.22;4.40;;;;;;;16.44;100.00;90693.72;5011794;28;20088;-74
2022/08/16 03:03:28;;;;;;;6.50;4.47;;;;;;;16.53;100.00;90693.50;5011745;28;20029;-76
2022/08/16 03:05:54;;;;;;;7.45;5.22;;;;;;;16.58;100.00;90709.38;5011603;28;20110;-75
2022/08/16 03:08:21;;;;;;;8.80;5.18;;;;;;;16.55;100.00;90715.41;5011307;28;20511;-76
2022/08/16 03:10:48;;;;;;;9.15;5.45;;;;;;;16.67;100.00;90720.72;5011631;28;20030;-71
2022/08/16 03:13:16;;;;;;;10.38;6.38;;;;;;;16.73;100.00;90715.88;5011650;28;20029;-73
2022/08/16 03:15:43;;;;;;;9.90;6.35;;;;;;;16.74;100.00;90718.19;5011656;28;20052;-73
2022/08/16 03:18:10;;;;;;;11.90;6.53;;;;;;;16.71;100.00;90726.16;5011438;28;20034;-71
2022/08/16 03:20:35;;;;;;;11.70;7.00;;;;;;;16.72;100.00;90719.66;5011496;28;20061;-74
2022/08/16 03:23:03;;;;;;;9.02;5.60;;;;;;;16.67;100.00;90725.31;5011564;28;20104;-74
2022/08/16 03:25:29;;;;;;;8.60;5.20;;;;;;;16.69;100.00;90731.09;5011591;28;20109;-72
2022/08/16 03:27:55;;;;;;;9.18;5.30;;;;;;;16.63;100.00;90738.63;5011679;28;20038;-77
2022/08/16 03:30:24;;;;;;;7.68;5.05;;;;;;;16.60;100.00;90742.03;5011429;28;20402;-75
2022/08/16 03:32:50;;;;;;;7.03;4.75;;;;;;;16.61;100.00;90740.13;5011425;28;20030;-73
2022/08/16 03:37:59;;;;;;;8.43;5.72;;;;;;;16.63;100.00;90735.94;5040177;22;20125;-78
2022/08/16 03:40:26;;;;;;;8.93;5.40;;;;;;;16.59;100.00;90737.78;4991584;28;20027;-78
2022/08/16 03:42:52;;;;;;;9.60;5.57;;;;;;;16.60;100.00;90730.50;4993502;28;20472;-79
2022/08/16 03:45:18;;;;;;;8.82;5.72;;;;;;;16.66;100.00;90724.50;4992707;28;20045;-78
2022/08/16 03:47:46;;;;;;;9.00;6.20;;;;;;;16.66;100.00;90721.81;4991509;28;20088;-79
2022/08/16 03:50:13;;;;;;;9.85;6.30;;;;;;;16.67;100.00;90728.78;4994633;28;20030;-77
2022/08/16 03:52:40;;;;;;;10.75;6.45;;;;;;;16.77;100.00;90732.84;4995510;28;20388;-77
2022/08/16 03:55:08;;;;;;;12.65;6.82;;;;;;;16.79;100.00;90733.25;4995634;28;20030;-77
2022/08/16 03:57:34;;;;;;;10.23;6.25;;;;;;;16.89;100.00;90740.78;4999996;28;20801;-76
2022/08/16 03:59:59;;;;;;;10.18;6.10;;;;;;;16.92;100.00;90740.09;4995194;28;20038;-78
2022/08/16 04:02:25;;;;;;;9.25;5.72;;;;;;;17.01;100.00;90729.13;4995465;28;20496;-78
2022/08/16 04:04:52;;;;;;;9.50;5.75;;;;;;;17.08;100.00;90720.44;4995742;28;20476;-78
2022/08/16 04:07:18;;;;;;;10.05;5.80;;;;;;;17.16;100.00;90722.13;4996575;28;20400;-78
2022/08/16 04:09:44;;;;;;;13.38;6.40;;;;;;;17.16;100.00;90720.22;4997212;28;20041;-78
2022/08/16 04:12:11;;;;;;;8.80;6.25;;;;;;;17.18;100.00;90714.47;4996448;28;20033;-76
2022/08/16 04:14:37;;;;;;;11.63;6.65;;;;;;;17.10;100.00;90718.16;4995209;28;20026;-77
2022/08/16 04:17:03;;;;;;;9.38;6.50;;;;;;;17.11;100.00;90715.13;4986744;28;20042;-76
2022/08/16 04:19:29;;;;;;;11.05;6.93;;;;;;;17.15;100.00;90723.25;4975718;28;20102;-75
2022/08/16 04:21:55;;;;;;;12.77;7.03;;;;;;;17.16;100.00;90724.81;4975615;28;20524;-72
2022/08/16 04:24:21;;;;;;;11.20;6.25;;;;;;;17.16;100.00;90724.81;4975622;28;20027;-74
2022/08/16 04:26:47;;;;;;;7.80;5.38;;;;;;;17.15;100.00;90720.56;4974832;28;20551;-75
2022/08/16 04:29:14;;;;;;;8.15;5.60;;;;;;;17.16;100.00;90727.50;4975386;28;20073;-75
2022/08/16 04:31:40;;;;;;;8.55;5.65;;;;;;;17.24;100.00;90727.31;4975331;28;20042;-76
2022/08/16 04:34:05;;;;;;;9.07;5.53;;;;;;;17.28;100.00;90736.22;4975384;28;20031;-76
2022/08/16 04:36:31;;;;;;;7.15;5.43;;;;;;;17.38;100.00;90742.94;4974974;28;20065;-76
2022/08/16 04:38:56;;;;;;;7.00;5.50;;;;;;;17.41;100.00;90742.25;4975287;28;20031;-76
2022/08/16 04:41:22;;;;;;;5.88;4.32;;;;;;;17.51;100.00;90733.56;4975324;28;20390;-77
2022/08/16 04:43:48;;;;;;;9.07;4.88;;;;;;;17.63;100.00;90736.13;4975214;28;20034;-76
2022/08/16 04:46:15;;;;;;;7.72;4.95;;;;;;;17.74;100.00;90749.03;4975186;28;20117;-77
2022/08/16 04:48:41;;;;;;;6.93;4.32;;;;;;;17.88;100.00;90743.91;4975107;28;20034;-77
2022/08/16 04:51:08;;;;;;;5.78;4.35;;;;;;;17.95;100.00;90735.97;4975111;28;20049;-76
2022/08/16 04:53:34;;;;;;;7.20;4.55;;;;;;;18.15;100.00;90732.09;4974879;28;20101;-76
2022/08/16 04:55:59;;;;;;;6.78;5.28;;;;;;;18.33;100.00;90734.31;4974874;28;20035;-76
2022/08/16 04:58:25;;;;;;;9.40;4.60;;;;;;;18.53;100.00;90733.88;4974870;28;20023;-76
2022/08/16 05:00:51;;;;;;;6.80;4.70;;;;;;;19.21;100.00;90729.47;4973524;28;20037;-76
2022/08/16 05:03:16;;;;;;;6.93;4.78;;;;;;;21.23;100.00;90719.81;4974827;28;20034;-76
2022/08/16 05:05:42;;;;;;;7.55;4.80;;;;;;;23.88;85.15;90716.94;4989640;28;20412;-76
2022/08/16 05:08:08;;;;;;;12.00;4.80;;;;;;;26.30;67.09;90724.22;4974657;28;20031;-76
2022/08/16 05:10:34;;;;;;;7.03;4.78;;;;;;;28.36;59.02;90733.66;4974726;28;20037;-76
2022/08/16 05:13:01;;;;;;;6.15;4.85;;;;;;;29.99;52.95;90743.50;4974604;28;20038;-77
2022/08/16 05:15:28;;;;;;;7.55;4.95;;;;;;;30.53;50.66;90736.53;4974487;28;20031;-76
2022/08/16 05:17:54;;;;;;;6.18;4.88;;;;;;;30.69;49.20;90731.75;4974644;28;20030;-75
2022/08/16 05:20:20;;;;;;;6.72;4.88;;;;;;;30.63;48.77;90739.00;4974602;28;20110;-77
2022/08/16 05:22:46;;;;;;;8.13;6.78;;;;;;;30.81;46.86;90723.97;4974585;28;20046;-77
2022/08/16 05:25:12;;;;;;;11.02;7.65;;;;;;;27.75;51.81;90724.66;4975475;28;20027;-77
2022/08/16 05:27:40;;;;;;;5.20;4.45;;;;;;;25.70;57.71;90707.41;4975397;28;20038;-78
2022/08/16 05:30:07;;;;;;;5.38;4.47;;;;;;;25.65;60.16;90707.84;4974442;28;20105;-77
2022/08/16 05:32:34;;;;;;;7.03;4.55;;;;;;;27.08;57.04;90715.69;4974368;28;20529;-76
2022/08/16 05:35:00;;;;;;;7.35;4.55;;;;;;;29.25;52.80;90716.03;4974302;28;20114;-76
2022/08/16 05:37:26;;;;;;;6.13;3.67;;;;;;;31.41;47.75;90715.84;4973880;28;20078;-76
2022/08/16 05:39:51;;;;;;;7.38;3.75;;;;;;;33.10;44.40;90715.69;4974199;28;20066;-76
2022/08/16 05:42:17;;;;;;;5.13;4.10;;;;;;;33.68;43.59;90706.69;4974194;28;20085;-77
2022/08/16 05:44:43;;;;;;;6.07;4.15;;;;;;;33.90;42.33;90714.84;4989030;28;20073;-77
2022/08/16 05:47:08;;;;;;;6.45;4.90;;;;;;;35.03;40.68;90716.59;4974035;28;20058;-76
2022/08/16 05:49:34;;;;;;;7.25;4.55;;;;;;;35.74;39.28;90715.97;4973919;28;20036;-76
2022/08/16 05:52:00;;;;;;;6.93;4.13;;;;;;;36.65;37.85;90716.56;4973970;28;20027;-76
2022/08/16 05:54:26;;;;;;;6.57;4.82;;;;;;;37.60;36.71;90710.59;4973830;28;20058;-76
2022/08/16 05:56:56;;;;;;;10.15;5.82;;;;;;;37.81;35.83;90710.63;4973832;28;20022;-76
2022/08/16 05:59:23;;;;;;;9.43;6.82;;;;;;;36.71;37.95;90715.41;4973842;28;20440;-76
2022/08/16 06:01:50;;;;;;;8.93;4.95;;;;;;;37.38;36.66;90716.56;4974000;28;20402;-76
2022/08/16 06:04:17;;;;;;;6.95;4.93;;;;;;;38.35;34.87;90709.09;4973708;28;20038;-79
2022/08/16 06:06:43;;;;;;;5.03;3.67;;;;;;;37.94;32.57;90699.97;4973632;28;20077;-76
2022/08/16 06:09:10;;;;;;;5.93;4.20;;;;;;;37.26;34.26;90694.66;4973521;28;20031;-77
2022/08/16 06:11:36;;;;;;;5.07;4.15;;;;;;;38.64;33.53;90683.88;4973426;28;20432;-79
2022/08/16 06:14:03;;;;;;;5.70;4.28;;;;;;;38.77;32.79;90694.63;4973579;28;20117;-79
2022/08/16 06:16:28;;;;;;;7.75;4.22;;;;;;;37.84;34.43;90696.53;4974128;28;20150;-80
2022/08/16 06:18:54;;;;;;;5.22;4.50;;;;;;;36.18;36.32;90687.69;4973579;28;20457;-79
2022/08/16 06:21:20;;;;;;;6.07;4.28;;;;;;;36.78;37.20;90687.31;4973441;28;20524;-80
2022/08/16 06:23:45;;;;;;;4.43;4.03;;;;;;;38.86;34.90;90690.91;4973204;28;20030;-79
2022/08/16 06:26:10;;;;;;;4.13;3.63;;;;;;;40.17;32.76;90692.88;4973224;28;20078;-81
2022/08/16 06:28:36;;;;;;;6.47;4.03;;;;;;;37.34;34.94;90693.03;4973136;28;20113;-80
2022/08/16 06:31:02;;;;;;;5.22;3.47;;;;;;;34.70;38.24;90677.81;4973160;28;20026;-80
2022/08/16 06:33:30;;;;;;;5.43;3.70;;;;;;;35.82;37.38;90674.84;4973139;28;20042;-79
2022/08/16 06:35:56;;;;;;;4.57;3.53;;;;;;;35.69;37.53;90677.88;4972916;28;20043;-79
2022/08/16 06:38:23;;;;;;;4.70;3.45;;;;;;;35.49;37.01;90681.22;4973167;28;20018;-79
2022/08/16 06:40:48;;;;;;;5.07;3.92;;;;;;;36.03;36.24;90684.13;4973168;28;20497;-79
2022/08/16 06:43:14;;;;;;;5.18;4.00;;;;;;;34.85;39.19;90684.22;4973090;28;20069;-78
2022/08/16 06:45:41;;;;;;;8.90;4.20;;;;;;;34.29;39.39;90685.56;4972853;28;20030;-77
2022/08/16 06:48:07;;;;;;;5.47;4.35;;;;;;;33.32;40.58;90688.81;4972901;28;20408;-77
2022/08/16 06:50:34;;;;;;;7.75;4.30;;;;;;;33.21;41.10;90690.47;4987960;28;20563;-76
2022/08/16 06:53:01;;;;;;;7.82;4.50;;;;;;;32.09;42.56;90689.53;4992306;28;20072;-76
2022/08/16 06:55:28;;;;;;;10.88;5.43;;;;;;;31.95;42.39;90679.81;4991978;28;20022;-75
2022/08/16 06:57:54;;;;;;;6.15;4.32;;;;;;;32.59;42.95;90674.72;4992390;28;20037;-76
2022/08/16 07:00:20;;;;;;;4.70;4.20;;;;;;;33.80;40.95;90682.94;4992119;28;20022;-77
2022/08/16 07:02:46;;;;;;;7.15;5.40;;;;;;;34.38;39.42;90682.03;4993621;28;20105;-77
2022/08/16 07:05:14;;;;;;;9.80;6.18;;;;;;;33.04;40.98;90685.22;4992314;28;20113;-74
2022/08/16 07:07:41;;;;;;;12.35;8.73;;;;;;;32.63;41.22;90683.63;4991944;28;20121;-74
2022/08/16 07:10:09;;;;;;;5.85;4.10;;;;;;;33.10;40.95;90681.84;4991972;28;20484;-74
2022/08/16 07:12:35;;;;;;;7.15;4.70;;;;;;;33.28;40.89;90679.91;4992012;28;20467;-74
2022/08/16 07:15:01;;;;;;;10.55;6.10;;;;;;;34.50;39.06;90681.09;4991893;28;20089;-75
2022/08/16 07:17:27;;;;;;;6.88;4.93;;;;;;;34.40;39.62;90680.38;4991823;28;20492;-75
2022/08/16 07:19:54;;;;;;;6.20;4.22;;;;;;;35.69;38.42;90672.34;4993163;28;20027;-76
2022/08/16 07:22:20;;;;;;;7.35;4.70;;;;;;;35.87;37.74;90677.78;4993618;28;20075;-75
2022/08/16 07:24:46;;;;;;;4.80;3.80;;;;;;;36.25;36.70;90677.00;4991412;28;20058;-75
2022/08/16 07:27:12;;;;;;;6.75;4.00;;;;;;;36.97;36.06;90679.59;4992217;28;20099;-75
2022/08/16 07:29:38;;;;;;;4.57;4.10;;;;;;;35.56;38.09;90683.66;4991949;28;20030;-75
2022/08/16 07:32:04;;;;;;;5.72;4.60;;;;;;;35.39;38.17;90680.53;4991854;28;20042;-74
2022/08/16 07:34:30;;;;;;;4.72;3.90;;;;;;;36.97;35.78;90689.91;4991990;28;20496;-74
2022/08/16 07:36:58;;;;;;;7.05;4.15;;;;;;;35.36;37.85;90683.47;4991448;28;20046;-75
2022/08/16 07:39:24;;;;;;;6.38;4.15;;;;;;;35.50;36.98;90687.53;4991636;28;20049;-74
2022/08/16 07:41:49;;;;;;;8.65;7.53;;;;;;;35.34;38.00;90683.13;4991608;28;20129;-74
2022/08/16 07:44:15;;;;;;;5.88;4.10;;;;;;;34.38;39.96;90684.81;4991746;28;20042;-73
2022/08/16 07:46:40;;;;;;;5.32;3.97;;;;;;;34.87;38.16;90681.03;4991640;28;20179;-73
2022/08/16 07:49:06;;;;;;;3.95;3.58;;;;;;;35.49;37.46;90688.75;4990107;28;20504;-74
2022/08/16 07:51:33;;;;;;;7.18;4.00;;;;;;;36.81;35.86;90691.16;4991477;28;20073;-74
2022/08/16 07:54:01;;;;;;;7.50;4.63;;;;;;;35.69;36.46;90686.97;4991511;28;20049;-75
2022/08/16 07:56:28;;;;;;;4.43;3.55;;;;;;;36.19;35.83;90680.94;4991603;28;20046;-74
2022/08/16 07:58:54;;;;;;;6.85;3.88;;;;;;;35.58;35.89;90683.19;4991751;28;20039;-76
2022/08/16 08:01:21;;;;;;;4.72;3.55;;;;;;;35.87;35.23;90686.09;4992476;28;20107;-74
2022/08/16 08:03:47;;;;;;;5.63;3.45;;;;;;;36.69;34.49;90686.63;4991943;28;20412;-77
2022/08/16 08:06:13;;;;;;;4.20;3.60;;;;;;;36.23;34.66;90695.34;4991201;28;20582;-79
2022/08/16 08:08:41;;;;;;;3.80;2.67;;;;;;;35.05;35.88;90690.03;4991470;28;20045;-77
2022/08/16 08:11:07;;;;;;;3.80;3.40;;;;;;;34.89;35.10;90689.63;4996043;28;20059;-78
2022/08/16 08:13:33;;;;;;;3.40;2.88;;;;;;;35.41;34.18;90691.88;4993740;28;20053;-77
2022/08/16 08:15:58;;;;;;;3.83;2.83;;;;;;;34.94;35.30;90697.28;4991323;28;20062;-76
2022/08/16 08:18:24;;;;;;;3.92;3.20;;;;;;;34.16;36.01;90690.47;4991780;28;20043;-74
2022/08/16 08:20:49;;;;;;;4.05;3.35;;;;;;;34.62;36.74;90687.69;4991308;28;20046;-74
2022/08/16 08:23:16;;;;;;;3.67;3.03;;;;;;;34.94;36.07;90686.25;4991563;28;20042;-73
2022/08/16 08:25:42;;;;;;;7.63;2.78;;;;;;;35.69;34.99;90694.50;4991209;28;20052;-73
2022/08/16 08:28:08;;;;;;;3.40;3.10;;;;;;;36.36;34.39;90701.44;4991343;28;20047;-73
2022/08/16 08:30:35;;;;;;;4.18;3.30;;;;;;;36.85;34.21;90711.13;4991132;28;20050;-75
2022/08/16 08:33:01;;;;;;;3.47;2.85;;;;;;;37.00;32.79;90713.91;4995115;28;20485;-75
2022/08/16 08:35:27;;;;;;;3.08;2.78;;;;;;;37.10;34.12;90712.56;4999388;28;20049;-75
2022/08/16 08:37:53;;;;;;;5.05;3.40;;;;;;;36.31;34.91;90715.91;4994492;28;20046;-75
2022/08/16 08:40:18;;;;;;;4.22;2.80;;;;;;;36.28;33.77;90723.16;4994870;28;20487;-75
2022/08/16 08:42:44;;;;;;;3.50;2.75;;;;;;;35.94;33.37;90718.94;4994710;28;20050;-74
2022/08/16 08:45:12;;;;;;;3.83;3.45;;;;;;;36.10;34.40;90717.00;4994542;28;20042;-73
2022/08/16 08:47:38;;;;;;;3.30;2.60;;;;;;;35.62;34.85;90709.44;4994558;28;20049;-74
2022/08/16 08:50:05;;;;;;;3.20;2.90;;;;;;;35.62;35.25;90700.38;4994562;28;20169;-74
2022/08/16 08:52:31;;;;;;;3.33;3.03;;;;;;;35.39;35.85;90710.97;4994569;28;20050;-73
2022/08/16 08:54:57;;;;;;;3.17;2.88;;;;;;;35.42;35.36;90715.53;4994629;28;20522;-75
2022/08/16 08:57:23;;;;;;;6.75;3.47;;;;;;;36.10;35.56;90711.44;4994583;28;20042;-73
2022/08/16 08:59:48;;;;;;;3.80;2.85;;;;;;;35.42;34.65;90709.25;4994396;28;20044;-75
2022/08/16 09:02:15;;;;;;;3.65;3.30;;;;;;;35.95;34.44;90703.88;4994363;28;20069;-73
2022/08/16 09:04:42;;;;;;;3.90;3.50;;;;;;;34.59;36.25;90703.19;4994380;28;20125;-73
2022/08/16 09:07:08;;;;;;;3.95;3.38;;;;;;;34.94;36.83;90708.34;4994186;28;20536;-73
2022/08/16 09:09:34;;;;;;;5.25;4.18;;;;;;;35.35;35.94;90699.31;4994133;28;20086;-73
2022/08/16 09:12:00;;;;;;;3.55;3.25;;;;;;;36.27;35.41;90710.53;4994081;28;20623;-73
2022/08/16 09:14:27;;;;;;;4.25;3.20;;;;;;;37.04;34.01;90720.78;4994114;28;20049;-73
2022/08/16 09:16:52;;;;;;;4.70;3.28;;;;;;;36.00;35.05;90714.31;4994048;28;20042;-73
2022/08/16 09:19:18;;;;;;;4.25;3.20;;;;;;;35.09;35.15;90709.22;4994058;28;20570;-73
2022/08/16 09:21:43;;;;;;;5.10;3.50;;;;;;;35.89;35.85;90714.06;4994012;28;20436;-73
2022/08/16 09:24:09;;;;;;;4.97;3.35;;;;;;;36.15;35.03;90716.34;4994040;28;20081;-72
2022/08/16 09:26:35;;;;;;;4.28;3.22;;;;;;;36.26;34.85;90730.41;4976085;28;20093;-72
2022/08/16 09:29:00;;;;;;;8.15;3.15;;;;;;;36.33;34.47;90723.78;4974243;28;20413;-71
2022/08/16 09:31:26;;;;;;;3.97;3.10;;;;;;;35.71;34.97;90717.69;4974269;28;20039;-71
2022/08/16 09:33:54;;;;;;;4.15;3.42;;;;;;;34.46;36.99;90716.41;4974145;28;20530;-71
2022/08/16 09:36:20;;;;;;;4.68;4.15;;;;;;;35.70;36.41;90730.00;4973657;28;20047;-70
2022/08/16 09:38:45;;;;;;;5.70;3.40;;;;;;;34.88;37.24;90716.53;4974001;28;20086;-73
2022/08/16 09:41:12;;;;;;;3.42;3.13;;;;;;;35.01;35.81;90719.06;4973617;28;20101;-73
2022/08/16 09:43:38;;;;;;;3.55;3.10;;;;;;;35.40;36.04;90711.72;4974036;28;20038;-70
2022/08/16 09:46:06;;;;;;;6.28;3.85;;;;;;;36.12;35.63;90715.28;4973390;28;20078;-69
2022/08/16 09:48:40;;;;;;;4.68;3.75;;;;;;;35.94;35.46;90718.94;4973717;28;20038;-73
2022/08/16 09:51:08;;;;;;;3.75;3.28;;;;;;;35.57;34.75;90703.78;4973789;28;20101;-73
2022/08/16 09:53:33;;;;;;;4.93;3.60;;;;;;;35.58;36.59;90710.84;4973629;28;20054;-75
2022/08/16 09:56:00;;;;;;;4.40;3.58;;;;;;;34.40;36.09;90704.44;4973242;28;20115;-73
2022/08/16 09:58:26;;;;;;;5.20;3.78;;;;;;;34.44;36.51;90707.84;4973696;28;20492;-72
2022/08/16 10:00:53;;;;;;;3.78;3.33;;;;;;;35.52;35.69;90709.97;4973671;28;20097;-70
2022/08/16 10:03:19;;;;;;;4.28;3.65;;;;;;;34.51;36.68;90704.72;4973601;28;20102;-72
2022/08/16 10:05:46;;;;;;;6.40;3.47;;;;;;;33.87;37.54;90718.53;4973307;28;20049;-72
2022/08/16 10:08:12;;;;;;;3.80;3.40;;;;;;;33.65;38.01;90713.91;4988395;28;20074;-74
2022/08/16 10:10:41;;;;;;;4.30;3.50;;;;;;;34.92;36.61;90713.59;4973441;28;20062;-75
2022/08/16 10:13:13;;;;;;;4.50;3.50;;;;;;;35.40;35.51;90720.78;4973487;28;20515;-75
2022/08/16 10:15:45;;;;;;;4.47;3.20;;;;;;;33.95;36.91;90725.31;4973278;28;20043;-76
2022/08/16 10:18:12;;;;;;;4.20;3.55;;;;;;;34.84;36.71;90724.91;4973282;28;20524;-76
2022/08/16 10:20:44;;;;;;;5.78;3.58;;;;;;;34.93;35.11;90732.47;4973421;28;20074;-74
2022/08/16 10:23:12;;;;;;;4.55;3.47;;;;;;;34.27;36.07;90731.44;4973411;28;20043;-74
2022/08/16 10:25:42;;;;;;;3.90;3.17;;;;;;;34.04;37.59;90727.28;4973243;28;20043;-74
2022/08/16 10:28:11;;;;;;;4.80;3.42;;;;;;;34.41;37.24;90734.38;4971981;28;20049;-76
2022/08/16 10:30:37;;;;;;;5.15;3.25;;;;;;;33.46;36.94;90734.41;4973223;28;20593;-74
2022/08/16 10:33:03;;;;;;;3.90;3.22;;;;;;;33.34;36.32;90725.00;4973124;28;20121;-67
2022/08/16 10:35:29;;;;;;;3.70;3.30;;;;;;;33.97;37.83;90733.13;4973138;28;20046;-66
2022/08/16 10:37:56;;;;;;;3.25;2.88;;;;;;;34.71;34.64;90731.84;4972988;28;20476;-65
2022/08/16 10:40:21;;;;;;;3.63;2.90;;;;;;;34.21;36.19;90732.03;4973147;28;20042;-71
2022/08/16 10:42:48;;;;;;;4.40;3.05;;;;;;;33.79;34.91;90739.38;4973017;28;20504;-66
2022/08/16 10:45:15;;;;;;;4.55;3.47;;;;;;;34.95;34.21;90732.00;4972901;28;20074;-67
2022/08/16 10:47:40;;;;;;;3.22;2.80;;;;;;;35.19;34.22;90735.63;4972920;28;20045;-66
2022/08/16 10:50:07;;;;;;;3.30;3.00;;;;;;;34.80;33.52;90740.16;4972568;28;20039;-65
2022/08/16 10:52:32;;;;;;;4.30;2.95;;;;;;;35.16;34.81;90724.69;4973215;28;20042;-66
2022/08/16 10:54:59;;;;;;;3.35;3.00;;;;;;;34.72;34.42;90730.66;4972849;28;20485;-66
2022/08/16 10:57:26;;;;;;;2.97;2.63;;;;;;;34.73;34.81;90719.13;4972829;28;20046;-67
2022/08/16 10:59:52;;;;;;;3.88;2.72;;;;;;;35.02;32.76;90726.13;4972812;28;20043;-66
2022/08/16 11:02:19;;;;;;;4.40;2.90;;;;;;;35.39;32.20;90737.84;4972830;28;20416;-66
2022/08/16 11:04:44;;;;;;;5.55;2.70;;;;;;;35.98;32.36;90733.41;4972833;28;20042;-66
2022/08/16 11:07:10;;;;;;;2.42;2.22;;;;;;;34.93;30.75;90731.69;4972613;28;20468;-66
2022/08/16 11:09:37;;;;;;;4.25;2.60;;;;;;;34.53;31.71;90727.13;4972602;28;20051;-66
2022/08/16 11:12:05;;;;;;;3.15;2.50;;;;;;;35.11;30.19;90728.88;4972686;28;20062;-66
2022/08/16 11:14:31;;;;;;;3.33;2.72;;;;;;;36.34;30.24;90725.31;4972622;28;20041;-66
2022/08/16 11:16:58;;;;;;;3.50;2.67;;;;;;;36.16;29.76;90728.97;4972514;28;20039;-67
2022/08/16 11:19:24;;;;;;;3.05;2.53;;;;;;;35.79;30.84;90723.63;4972581;28;20050;-66
2022/08/16 11:21:50;;;;;;;3.45;2.80;;;;;;;35.39;33.58;90715.72;4979246;28;20053;-67
2022/08/16 11:24:16;;;;;;;3.28;2.65;;;;;;;35.77;30.28;90717.03;4991874;28;20117;-66
2022/08/16 11:26:41;;;;;;;3.38;2.90;;;;;;;36.04;29.82;90716.13;4991780;28;20030;-66
2022/08/16 11:29:08;;;;;;;4.20;2.83;;;;;;;36.15;30.89;90708.81;4991789;28;20077;-66